sensor_id;sensor_type;location;lat;lon;timestamp;P1;durP1;ratioP1;P2;durP2;ratioP2
36817;SDS011;22761;51.542;16.450;2023-03-14T00:01:32;5.00;;;3.10;;
36817;SDS011;22761;51.542;16.450;2023-03-14T00:04:00;7.20;;;3.00;;
36817;SDS011;22761;51.542;16.450;2023-03-14T00:06:28;6.90;;;3.50;;
36817;SDS011;22761;51.542;16.450;2023-03-14T00:08:57;7.90;;;3.50;;
36817;SDS011;22761;51.542;16.450;2023-03-14T00:11:25;5.30;;;3.40;;
36817;SDS011;22761;51.542;16.450;2023-03-14T00:13:54;5.70;;;3.10;;
36817;SDS011;22761;51.542;16.450;2023-03-14T00:16:22;5.30;;;3.00;;
36817;SDS011;22761;51.542;16.450;2023-03-14T00:18:53;5.10;;;3.20;;
36817;SDS011;22761;51.542;16.450;2023-03-14T00:21:21;5.20;;;3.40;;
36817;SDS011;22761;51.542;16.450;2023-03-14T00:23:49;5.60;;;3.10;;
36817;SDS011;22761;51.542;16.450;2023-03-14T00:26:18;4.90;;;3.20;;
36817;SDS011;22761;51.542;16.450;2023-03-14T00:28:50;6.00;;;3.10;;
36817;SDS011;22761;51.542;16.450;2023-03-14T00:31:19;6.00;;;3.50;;
36817;SDS011;22761;51.542;16.450;2023-03-14T00:33:48;6.70;;;3.60;;
36817;SDS011;22761;51.542;16.450;2023-03-14T00:36:16;6.30;;;3.70;;
36817;SDS011;22761;51.542;16.450;2023-03-14T00:38:46;5.60;;;3.50;;
36817;SDS011;22761;51.542;16.450;2023-03-14T00:41:17;4.30;;;3.00;;
36817;SDS011;22761;51.542;16.450;2023-03-14T00:43:47;8.80;;;4.00;;
36817;SDS011;22761;51.542;16.450;2023-03-14T00:46:16;6.50;;;3.30;;
36817;SDS011;22761;51.542;16.450;2023-03-14T00:48:45;5.90;;;3.70;;
36817;SDS011;22761;51.542;16.450;2023-03-14T00:51:14;6.40;;;4.20;;
36817;SDS011;22761;51.542;16.450;2023-03-14T00:53:46;6.40;;;4.10;;
36817;SDS011;22761;51.542;16.450;2023-03-14T00:56:14;6.70;;;3.50;;
36817;SDS011;22761;51.542;16.450;2023-03-14T00:58:42;7.40;;;4.20;;
36817;SDS011;22761;51.542;16.450;2023-03-14T01:01:15;8.20;;;4.20;;
36817;SDS011;22761;51.542;16.450;2023-03-14T01:03:46;9.60;;;4.40;;
36817;SDS011;22761;51.542;16.450;2023-03-14T01:06:17;7.50;;;4.00;;
36817;SDS011;22761;51.542;16.450;2023-03-14T01:08:47;6.80;;;4.20;;
36817;SDS011;22761;51.542;16.450;2023-03-14T01:11:17;7.60;;;4.00;;
36817;SDS011;22761;51.542;16.450;2023-03-14T01:13:47;8.10;;;4.30;;
36817;SDS011;22761;51.542;16.450;2023-03-14T01:16:16;7.50;;;3.90;;
36817;SDS011;22761;51.542;16.450;2023-03-14T01:18:46;6.70;;;3.80;;
36817;SDS011;22761;51.542;16.450;2023-03-14T01:21:20;7.10;;;4.20;;
36817;SDS011;22761;51.542;16.450;2023-03-14T01:23:50;5.80;;;3.80;;
36817;SDS011;22761;51.542;16.450;2023-03-14T01:26:20;6.10;;;3.60;;
36817;SDS011;22761;51.542;16.450;2023-03-14T01:28:51;8.30;;;3.50;;
36817;SDS011;22761;51.542;16.450;2023-03-14T01:31:21;5.60;;;3.40;;
36817;SDS011;22761;51.542;16.450;2023-03-14T01:33:50;8.10;;;3.70;;
36817;SDS011;22761;51.542;16.450;2023-03-14T01:36:19;10.60;;;5.50;;
36817;SDS011;22761;51.542;16.450;2023-03-14T01:38:48;13.30;;;7.30;;
36817;SDS011;22761;51.542;16.450;2023-03-14T01:41:21;10.30;;;5.20;;
36817;SDS011;22761;51.542;16.450;2023-03-14T01:43:52;25.40;;;12.90;;
36817;SDS011;22761;51.542;16.450;2023-03-14T01:51:25;9.90;;;4.10;;
36817;SDS011;22761;51.542;16.450;2023-03-14T01:54:06;9.10;;;3.80;;
36817;SDS011;22761;51.542;16.450;2023-03-14T01:56:38;6.50;;;3.30;;
36817;SDS011;22761;51.542;16.450;2023-03-14T01:59:08;15.80;;;8.20;;
36817;SDS011;22761;51.542;16.450;2023-03-14T02:01:38;29.60;;;13.30;;
36817;SDS011;22761;51.542;16.450;2023-03-14T02:04:10;23.80;;;11.60;;
36817;SDS011;22761;51.542;16.450;2023-03-14T02:06:56;18.50;;;7.10;;
36817;SDS011;22761;51.542;16.450;2023-03-14T02:09:32;13.70;;;5.10;;
36817;SDS011;22761;51.542;16.450;2023-03-14T02:12:01;10.30;;;4.80;;
36817;SDS011;22761;51.542;16.450;2023-03-14T02:14:52;9.80;;;4.30;;
36817;SDS011;22761;51.542;16.450;2023-03-14T02:17:25;7.30;;;4.10;;
36817;SDS011;22761;51.542;16.450;2023-03-14T02:22:44;5.10;;;3.30;;
36817;SDS011;22761;51.542;16.450;2023-03-14T02:27:45;5.20;;;3.40;;
36817;SDS011;22761;51.542;16.450;2023-03-14T02:30:15;5.50;;;3.10;;
36817;SDS011;22761;51.542;16.450;2023-03-14T02:32:47;6.30;;;3.70;;
36817;SDS011;22761;51.542;16.450;2023-03-14T02:35:18;6.00;;;3.00;;
36817;SDS011;22761;51.542;16.450;2023-03-14T02:37:55;6.70;;;3.80;;
36817;SDS011;22761;51.542;16.450;2023-03-14T02:40:45;7.50;;;3.60;;
36817;SDS011;22761;51.542;16.450;2023-03-14T02:43:13;8.30;;;3.90;;
36817;SDS011;22761;51.542;16.450;2023-03-14T02:45:47;8.20;;;3.90;;
36817;SDS011;22761;51.542;16.450;2023-03-14T02:48:25;8.50;;;4.30;;
36817;SDS011;22761;51.542;16.450;2023-03-14T02:50:56;7.90;;;4.50;;
36817;SDS011;22761;51.542;16.450;2023-03-14T02:53:27;7.00;;;4.20;;
36817;SDS011;22761;51.542;16.450;2023-03-14T02:55:58;7.90;;;3.50;;
36817;SDS011;22761;51.542;16.450;2023-03-14T02:58:28;4.40;;;3.40;;
36817;SDS011;22761;51.542;16.450;2023-03-14T03:01:04;6.50;;;3.30;;
36817;SDS011;22761;51.542;16.450;2023-03-14T03:03:33;7.70;;;3.60;;
36817;SDS011;22761;51.542;16.450;2023-03-14T03:06:02;5.50;;;3.70;;
36817;SDS011;22761;51.542;16.450;2023-03-14T03:08:30;6.60;;;3.80;;
36817;SDS011;22761;51.542;16.450;2023-03-14T03:11:00;6.00;;;3.90;;
36817;SDS011;22761;51.542;16.450;2023-03-14T03:13:30;5.70;;;3.80;;
36817;SDS011;22761;51.542;16.450;2023-03-14T03:15:58;10.60;;;5.80;;
36817;SDS011;22761;51.542;16.450;2023-03-14T03:18:26;11.00;;;5.40;;
36817;SDS011;22761;51.542;16.450;2023-03-14T03:20:55;9.30;;;5.10;;
36817;SDS011;22761;51.542;16.450;2023-03-14T03:23:23;7.90;;;3.90;;
36817;SDS011;22761;51.542;16.450;2023-03-14T03:25:51;9.40;;;4.10;;
36817;SDS011;22761;51.542;16.450;2023-03-14T03:28:20;7.00;;;3.30;;
36817;SDS011;22761;51.542;16.450;2023-03-14T03:30:49;5.70;;;3.50;;
36817;SDS011;22761;51.542;16.450;2023-03-14T03:33:17;8.30;;;4.10;;
36817;SDS011;22761;51.542;16.450;2023-03-14T03:35:47;5.50;;;3.50;;
36817;SDS011;22761;51.542;16.450;2023-03-14T03:38:21;8.40;;;4.00;;
36817;SDS011;22761;51.542;16.450;2023-03-14T03:40:51;8.00;;;4.10;;
36817;SDS011;22761;51.542;16.450;2023-03-14T03:43:20;7.60;;;3.70;;
36817;SDS011;22761;51.542;16.450;2023-03-14T03:45:49;5.50;;;3.40;;
36817;SDS011;22761;51.542;16.450;2023-03-14T03:48:18;9.10;;;3.60;;
36817;SDS011;22761;51.542;16.450;2023-03-14T03:50:47;6.50;;;3.20;;
36817;SDS011;22761;51.542;16.450;2023-03-14T03:53:18;7.60;;;3.40;;
36817;SDS011;22761;51.542;16.450;2023-03-14T03:56:01;8.30;;;3.50;;
36817;SDS011;22761;51.542;16.450;2023-03-14T03:58:29;6.10;;;3.90;;
36817;SDS011;22761;51.542;16.450;2023-03-14T04:00:58;7.80;;;3.80;;
36817;SDS011;22761;51.542;16.450;2023-03-14T04:03:26;15.60;;;4.00;;
36817;SDS011;22761;51.542;16.450;2023-03-14T04:06:03;5.80;;;3.50;;
36817;SDS011;22761;51.542;16.450;2023-03-14T04:08:35;6.60;;;3.30;;
36817;SDS011;22761;51.542;16.450;2023-03-14T04:11:04;5.30;;;3.10;;
36817;SDS011;22761;51.542;16.450;2023-03-14T04:13:51;6.40;;;3.50;;
36817;SDS011;22761;51.542;16.450;2023-03-14T04:16:21;6.10;;;3.60;;
36817;SDS011;22761;51.542;16.450;2023-03-14T04:18:58;7.60;;;3.60;;
36817;SDS011;22761;51.542;16.450;2023-03-14T04:21:27;7.30;;;3.30;;
36817;SDS011;22761;51.542;16.450;2023-03-14T04:23:57;7.60;;;4.10;;
36817;SDS011;22761;51.542;16.450;2023-03-14T04:26:29;6.90;;;3.60;;
36817;SDS011;22761;51.542;16.450;2023-03-14T04:28:57;5.90;;;3.60;;
36817;SDS011;22761;51.542;16.450;2023-03-14T04:31:27;7.70;;;3.50;;
36817;SDS011;22761;51.542;16.450;2023-03-14T04:33:55;4.80;;;2.90;;
36817;SDS011;22761;51.542;16.450;2023-03-14T04:36:33;5.50;;;3.10;;
36817;SDS011;22761;51.542;16.450;2023-03-14T04:39:06;5.30;;;3.20;;
36817;SDS011;22761;51.542;16.450;2023-03-14T04:41:37;6.30;;;3.30;;
36817;SDS011;22761;51.542;16.450;2023-03-14T04:44:06;5.90;;;3.30;;
36817;SDS011;22761;51.542;16.450;2023-03-14T04:46:35;5.00;;;3.30;;
36817;SDS011;22761;51.542;16.450;2023-03-14T04:49:06;5.50;;;3.50;;
36817;SDS011;22761;51.542;16.450;2023-03-14T04:51:36;5.70;;;3.80;;
36817;SDS011;22761;51.542;16.450;2023-03-14T04:54:04;7.50;;;4.00;;
36817;SDS011;22761;51.542;16.450;2023-03-14T04:56:33;5.50;;;3.60;;
36817;SDS011;22761;51.542;16.450;2023-03-14T04:59:03;7.00;;;3.90;;
36817;SDS011;22761;51.542;16.450;2023-03-14T05:01:33;9.60;;;4.30;;
36817;SDS011;22761;51.542;16.450;2023-03-14T05:04:20;8.70;;;4.10;;
36817;SDS011;22761;51.542;16.450;2023-03-14T05:07:08;9.00;;;4.50;;
36817;SDS011;22761;51.542;16.450;2023-03-14T05:09:57;6.40;;;3.60;;
36817;SDS011;22761;51.542;16.450;2023-03-14T05:13:00;7.60;;;3.90;;
36817;SDS011;22761;51.542;16.450;2023-03-14T05:15:49;7.70;;;3.80;;
36817;SDS011;22761;51.542;16.450;2023-03-14T05:18:37;5.80;;;3.60;;
36817;SDS011;22761;51.542;16.450;2023-03-14T05:21:25;7.30;;;3.70;;
36817;SDS011;22761;51.542;16.450;2023-03-14T05:24:16;7.40;;;3.60;;
36817;SDS011;22761;51.542;16.450;2023-03-14T05:27:05;6.60;;;3.50;;
36817;SDS011;22761;51.542;16.450;2023-03-14T05:29:52;7.20;;;4.20;;
36817;SDS011;22761;51.542;16.450;2023-03-14T05:32:20;5.70;;;3.80;;
36817;SDS011;22761;51.542;16.450;2023-03-14T05:35:11;6.60;;;3.80;;
36817;SDS011;22761;51.542;16.450;2023-03-14T05:37:48;6.80;;;3.60;;
36817;SDS011;22761;51.542;16.450;2023-03-14T05:40:35;5.80;;;3.40;;
36817;SDS011;22761;51.542;16.450;2023-03-14T05:43:09;5.00;;;3.50;;
36817;SDS011;22761;51.542;16.450;2023-03-14T05:45:57;6.40;;;3.40;;
36817;SDS011;22761;51.542;16.450;2023-03-14T05:48:58;5.60;;;3.90;;
36817;SDS011;22761;51.542;16.450;2023-03-14T05:51:53;5.30;;;3.80;;
36817;SDS011;22761;51.542;16.450;2023-03-14T05:54:43;6.40;;;3.80;;
36817;SDS011;22761;51.542;16.450;2023-03-14T05:57:11;5.50;;;3.70;;
36817;SDS011;22761;51.542;16.450;2023-03-14T06:00:00;6.80;;;3.80;;
36817;SDS011;22761;51.542;16.450;2023-03-14T06:02:45;6.60;;;3.10;;
36817;SDS011;22761;51.542;16.450;2023-03-14T06:05:18;8.00;;;3.50;;
36817;SDS011;22761;51.542;16.450;2023-03-14T06:07:47;5.00;;;3.00;;
36817;SDS011;22761;51.542;16.450;2023-03-14T06:10:16;7.50;;;3.40;;
36817;SDS011;22761;51.542;16.450;2023-03-14T06:12:44;6.30;;;3.50;;
36817;SDS011;22761;51.542;16.450;2023-03-14T06:15:13;7.60;;;3.90;;
36817;SDS011;22761;51.542;16.450;2023-03-14T06:17:42;5.80;;;4.00;;
36817;SDS011;22761;51.542;16.450;2023-03-14T06:20:11;8.90;;;4.40;;
36817;SDS011;22761;51.542;16.450;2023-03-14T06:22:40;8.70;;;4.00;;
36817;SDS011;22761;51.542;16.450;2023-03-14T06:25:10;7.40;;;4.50;;
36817;SDS011;22761;51.542;16.450;2023-03-14T06:27:39;9.00;;;4.70;;
36817;SDS011;22761;51.542;16.450;2023-03-14T06:30:08;6.20;;;4.20;;
36817;SDS011;22761;51.542;16.450;2023-03-14T06:32:37;6.50;;;4.00;;
36817;SDS011;22761;51.542;16.450;2023-03-14T06:35:08;6.30;;;4.00;;
36817;SDS011;22761;51.542;16.450;2023-03-14T06:37:40;8.60;;;4.70;;
36817;SDS011;22761;51.542;16.450;2023-03-14T06:40:09;7.80;;;4.20;;
36817;SDS011;22761;51.542;16.450;2023-03-14T06:43:15;9.00;;;4.40;;
36817;SDS011;22761;51.542;16.450;2023-03-14T06:45:45;8.60;;;4.50;;
36817;SDS011;22761;51.542;16.450;2023-03-14T06:48:15;7.30;;;4.20;;
36817;SDS011;22761;51.542;16.450;2023-03-14T06:50:48;9.10;;;4.40;;
36817;SDS011;22761;51.542;16.450;2023-03-14T06:53:16;7.10;;;4.20;;
36817;SDS011;22761;51.542;16.450;2023-03-14T06:55:45;7.00;;;4.30;;
36817;SDS011;22761;51.542;16.450;2023-03-14T06:58:14;6.10;;;3.50;;
36817;SDS011;22761;51.542;16.450;2023-03-14T07:00:44;8.10;;;3.80;;
36817;SDS011;22761;51.542;16.450;2023-03-14T07:03:16;7.30;;;3.80;;
36817;SDS011;22761;51.542;16.450;2023-03-14T07:05:48;5.80;;;3.60;;
36817;SDS011;22761;51.542;16.450;2023-03-14T07:08:16;8.30;;;4.40;;
36817;SDS011;22761;51.542;16.450;2023-03-14T07:10:45;4.90;;;3.50;;
36817;SDS011;22761;51.542;16.450;2023-03-14T07:13:13;6.10;;;3.40;;
36817;SDS011;22761;51.542;16.450;2023-03-14T07:15:56;6.60;;;3.00;;
36817;SDS011;22761;51.542;16.450;2023-03-14T07:18:24;7.00;;;3.20;;
36817;SDS011;22761;51.542;16.450;2023-03-14T07:20:53;6.40;;;2.90;;
36817;SDS011;22761;51.542;16.450;2023-03-14T07:23:21;5.00;;;3.10;;
36817;SDS011;22761;51.542;16.450;2023-03-14T07:25:52;4.30;;;2.90;;
36817;SDS011;22761;51.542;16.450;2023-03-14T07:28:23;5.20;;;3.30;;
36817;SDS011;22761;51.542;16.450;2023-03-14T07:30:57;7.60;;;3.80;;
36817;SDS011;22761;51.542;16.450;2023-03-14T07:33:29;6.10;;;3.50;;
36817;SDS011;22761;51.542;16.450;2023-03-14T07:35:57;7.00;;;3.80;;
36817;SDS011;22761;51.542;16.450;2023-03-14T07:38:26;9.30;;;4.20;;
36817;SDS011;22761;51.542;16.450;2023-03-14T07:41:13;6.70;;;3.20;;
36817;SDS011;22761;51.542;16.450;2023-03-14T07:43:49;6.50;;;3.50;;
36817;SDS011;22761;51.542;16.450;2023-03-14T07:46:17;5.10;;;2.80;;
36817;SDS011;22761;51.542;16.450;2023-03-14T07:48:46;6.20;;;3.50;;
36817;SDS011;22761;51.542;16.450;2023-03-14T07:51:14;6.40;;;3.60;;
36817;SDS011;22761;51.542;16.450;2023-03-14T07:53:42;7.50;;;3.90;;
36817;SDS011;22761;51.542;16.450;2023-03-14T07:56:11;6.60;;;3.50;;
36817;SDS011;22761;51.542;16.450;2023-03-14T07:58:40;7.40;;;4.00;;
36817;SDS011;22761;51.542;16.450;2023-03-14T08:01:08;6.20;;;3.80;;
36817;SDS011;22761;51.542;16.450;2023-03-14T08:03:36;5.90;;;3.50;;
36817;SDS011;22761;51.542;16.450;2023-03-14T08:06:05;7.00;;;3.80;;
36817;SDS011;22761;51.542;16.450;2023-03-14T08:08:34;6.50;;;3.50;;
36817;SDS011;22761;51.542;16.450;2023-03-14T08:11:04;5.00;;;3.30;;
36817;SDS011;22761;51.542;16.450;2023-03-14T08:13:33;5.30;;;3.40;;
36817;SDS011;22761;51.542;16.450;2023-03-14T08:16:01;7.80;;;4.80;;
36817;SDS011;22761;51.542;16.450;2023-03-14T08:18:29;9.00;;;5.80;;
36817;SDS011;22761;51.542;16.450;2023-03-14T08:20:58;10.10;;;6.30;;
36817;SDS011;22761;51.542;16.450;2023-03-14T08:23:26;14.00;;;8.20;;
36817;SDS011;22761;51.542;16.450;2023-03-14T08:25:54;22.00;;;12.10;;
36817;SDS011;22761;51.542;16.450;2023-03-14T08:28:23;26.80;;;15.20;;
36817;SDS011;22761;51.542;16.450;2023-03-14T08:30:51;21.30;;;12.10;;
36817;SDS011;22761;51.542;16.450;2023-03-14T08:33:23;23.80;;;12.90;;
36817;SDS011;22761;51.542;16.450;2023-03-14T08:35:52;9.80;;;5.70;;
36817;SDS011;22761;51.542;16.450;2023-03-14T08:38:22;10.70;;;6.60;;
36817;SDS011;22761;51.542;16.450;2023-03-14T08:40:55;7.40;;;4.00;;
36817;SDS011;22761;51.542;16.450;2023-03-14T08:43:27;5.90;;;3.80;;
36817;SDS011;22761;51.542;16.450;2023-03-14T08:45:59;9.80;;;4.00;;
36817;SDS011;22761;51.542;16.450;2023-03-14T08:48:28;7.00;;;4.30;;
36817;SDS011;22761;51.542;16.450;2023-03-14T08:51:05;9.10;;;5.20;;
36817;SDS011;22761;51.542;16.450;2023-03-14T08:53:36;10.70;;;5.00;;
36817;SDS011;22761;51.542;16.450;2023-03-14T08:56:05;7.10;;;4.50;;
36817;SDS011;22761;51.542;16.450;2023-03-14T08:58:34;7.80;;;4.60;;
36817;SDS011;22761;51.542;16.450;2023-03-14T09:01:05;6.90;;;4.70;;
36817;SDS011;22761;51.542;16.450;2023-03-14T09:03:34;5.90;;;4.00;;
36817;SDS011;22761;51.542;16.450;2023-03-14T09:06:03;6.80;;;3.70;;
36817;SDS011;22761;51.542;16.450;2023-03-14T09:08:32;5.40;;;3.60;;
36817;SDS011;22761;51.542;16.450;2023-03-14T09:11:05;8.80;;;3.60;;
36817;SDS011;22761;51.542;16.450;2023-03-14T09:13:35;6.90;;;3.30;;
36817;SDS011;22761;51.542;16.450;2023-03-14T09:16:04;5.70;;;3.10;;
36817;SDS011;22761;51.542;16.450;2023-03-14T09:18:32;6.10;;;2.90;;
36817;SDS011;22761;51.542;16.450;2023-03-14T09:21:01;4.70;;;3.20;;
36817;SDS011;22761;51.542;16.450;2023-03-14T09:23:29;6.10;;;3.50;;
36817;SDS011;22761;51.542;16.450;2023-03-14T09:25:57;6.40;;;3.20;;
36817;SDS011;22761;51.542;16.450;2023-03-14T09:28:26;6.40;;;3.20;;
36817;SDS011;22761;51.542;16.450;2023-03-14T09:30:55;4.70;;;3.00;;
36817;SDS011;22761;51.542;16.450;2023-03-14T09:33:23;3.30;;;2.60;;
36817;SDS011;22761;51.542;16.450;2023-03-14T09:35:52;5.20;;;2.60;;
36817;SDS011;22761;51.542;16.450;2023-03-14T09:38:20;4.80;;;2.70;;
36817;SDS011;22761;51.542;16.450;2023-03-14T09:40:48;4.70;;;2.60;;
36817;SDS011;22761;51.542;16.450;2023-03-14T09:43:17;4.60;;;2.50;;
36817;SDS011;22761;51.542;16.450;2023-03-14T09:45:46;5.30;;;3.10;;
36817;SDS011;22761;51.542;16.450;2023-03-14T09:50:50;8.60;;;3.70;;
36817;SDS011;22761;51.542;16.450;2023-03-14T09:53:21;8.00;;;3.70;;
36817;SDS011;22761;51.542;16.450;2023-03-14T09:55:54;6.50;;;3.50;;
36817;SDS011;22761;51.542;16.450;2023-03-14T09:58:23;5.90;;;4.10;;
36817;SDS011;22761;51.542;16.450;2023-03-14T10:00:54;7.40;;;4.00;;
36817;SDS011;22761;51.542;16.450;2023-03-14T10:03:33;9.10;;;3.80;;
36817;SDS011;22761;51.542;16.450;2023-03-14T10:06:08;5.60;;;3.10;;
36817;SDS011;22761;51.542;16.450;2023-03-14T10:08:41;5.70;;;3.00;;
36817;SDS011;22761;51.542;16.450;2023-03-14T10:11:14;3.90;;;2.40;;
36817;SDS011;22761;51.542;16.450;2023-03-14T10:14:04;5.70;;;2.80;;
36817;SDS011;22761;51.542;16.450;2023-03-14T10:16:34;3.10;;;2.00;;
36817;SDS011;22761;51.542;16.450;2023-03-14T10:19:13;4.70;;;2.20;;
36817;SDS011;22761;51.542;16.450;2023-03-14T10:21:44;3.90;;;2.30;;
36817;SDS011;22761;51.542;16.450;2023-03-14T10:26:55;4.90;;;2.30;;
36817;SDS011;22761;51.542;16.450;2023-03-14T10:29:30;5.40;;;2.40;;
36817;SDS011;22761;51.542;16.450;2023-03-14T10:34:34;4.50;;;2.20;;
36817;SDS011;22761;51.542;16.450;2023-03-14T10:37:07;6.10;;;2.30;;
36817;SDS011;22761;51.542;16.450;2023-03-14T10:39:51;5.90;;;2.50;;
36817;SDS011;22761;51.542;16.450;2023-03-14T10:42:22;6.90;;;2.50;;
36817;SDS011;22761;51.542;16.450;2023-03-14T10:44:56;3.60;;;2.30;;
36817;SDS011;22761;51.542;16.450;2023-03-14T10:47:26;3.50;;;2.00;;
36817;SDS011;22761;51.542;16.450;2023-03-14T10:49:56;4.50;;;1.90;;
36817;SDS011;22761;51.542;16.450;2023-03-14T10:52:26;3.70;;;1.80;;
36817;SDS011;22761;51.542;16.450;2023-03-14T10:55:15;3.00;;;0.90;;
36817;SDS011;22761;51.542;16.450;2023-03-14T10:57:44;2.30;;;0.90;;
36817;SDS011;22761;51.542;16.450;2023-03-14T11:00:16;3.40;;;1.20;;
36817;SDS011;22761;51.542;16.450;2023-03-14T11:11:12;3.20;;;0.80;;
36817;SDS011;22761;51.542;16.450;2023-03-14T11:13:50;3.00;;;0.90;;
36817;SDS011;22761;51.542;16.450;2023-03-14T11:19:10;3.20;;;0.90;;
36817;SDS011;22761;51.542;16.450;2023-03-14T11:22:43;2.60;;;1.10;;
36817;SDS011;22761;51.542;16.450;2023-03-14T11:25:38;1.90;;;0.90;;
36817;SDS011;22761;51.542;16.450;2023-03-14T11:28:14;1.40;;;0.70;;
36817;SDS011;22761;51.542;16.450;2023-03-14T11:30:53;4.50;;;1.00;;
36817;SDS011;22761;51.542;16.450;2023-03-14T11:33:55;2.50;;;0.90;;
36817;SDS011;22761;51.542;16.450;2023-03-14T11:39:15;2.80;;;0.60;;
36817;SDS011;22761;51.542;16.450;2023-03-14T11:44:33;0.80;;;0.60;;
36817;SDS011;22761;51.542;16.450;2023-03-14T11:47:11;1.40;;;0.80;;
36817;SDS011;22761;51.542;16.450;2023-03-14T11:49:45;7.30;;;1.00;;
36817;SDS011;22761;51.542;16.450;2023-03-14T11:57:37;2.70;;;0.90;;
36817;SDS011;22761;51.542;16.450;2023-03-14T12:00:20;1.90;;;0.90;;
36817;SDS011;22761;51.542;16.450;2023-03-14T12:08:25;1.80;;;0.90;;
36817;SDS011;22761;51.542;16.450;2023-03-14T12:10:58;1.80;;;0.90;;
36817;SDS011;22761;51.542;16.450;2023-03-14T12:13:48;2.90;;;1.00;;
36817;SDS011;22761;51.542;16.450;2023-03-14T12:18:52;2.40;;;1.10;;
36817;SDS011;22761;51.542;16.450;2023-03-14T12:21:21;2.40;;;1.50;;
36817;SDS011;22761;51.542;16.450;2023-03-14T12:23:54;4.50;;;1.30;;
36817;SDS011;22761;51.542;16.450;2023-03-14T12:26:24;1.40;;;0.60;;
36817;SDS011;22761;51.542;16.450;2023-03-14T12:44:48;4.60;;;1.60;;
36817;SDS011;22761;51.542;16.450;2023-03-14T12:49:48;2.60;;;1.00;;
36817;SDS011;22761;51.542;16.450;2023-03-14T12:52:22;3.30;;;1.10;;
36817;SDS011;22761;51.542;16.450;2023-03-14T13:00:32;2.50;;;1.20;;
36817;SDS011;22761;51.542;16.450;2023-03-14T13:03:02;1.90;;;0.80;;
36817;SDS011;22761;51.542;16.450;2023-03-14T13:08:44;2.40;;;1.10;;
36817;SDS011;22761;51.542;16.450;2023-03-14T13:11:16;2.10;;;0.70;;
36817;SDS011;22761;51.542;16.450;2023-03-14T13:13:48;2.50;;;0.80;;
36817;SDS011;22761;51.542;16.450;2023-03-14T13:16:20;2.50;;;0.80;;
36817;SDS011;22761;51.542;16.450;2023-03-14T13:18:49;2.30;;;0.70;;
36817;SDS011;22761;51.542;16.450;2023-03-14T13:24:06;2.80;;;0.70;;
36817;SDS011;22761;51.542;16.450;2023-03-14T13:26:46;1.70;;;0.70;;
36817;SDS011;22761;51.542;16.450;2023-03-14T13:29:22;2.60;;;0.80;;
36817;SDS011;22761;51.542;16.450;2023-03-14T13:31:53;2.60;;;1.00;;
36817;SDS011;22761;51.542;16.450;2023-03-14T13:34:24;1.50;;;0.70;;
36817;SDS011;22761;51.542;16.450;2023-03-14T13:36:57;2.80;;;0.60;;
36817;SDS011;22761;51.542;16.450;2023-03-14T13:39:26;1.90;;;0.70;;
36817;SDS011;22761;51.542;16.450;2023-03-14T13:42:00;3.80;;;0.90;;
36817;SDS011;22761;51.542;16.450;2023-03-14T13:44:30;1.70;;;0.80;;
36817;SDS011;22761;51.542;16.450;2023-03-14T13:47:03;3.60;;;0.80;;
36817;SDS011;22761;51.542;16.450;2023-03-14T13:49:33;2.40;;;1.00;;
36817;SDS011;22761;51.542;16.450;2023-03-14T13:52:03;2.00;;;1.00;;
36817;SDS011;22761;51.542;16.450;2023-03-14T13:54:32;2.30;;;0.60;;
36817;SDS011;22761;51.542;16.450;2023-03-14T13:57:02;1.10;;;0.50;;
36817;SDS011;22761;51.542;16.450;2023-03-14T13:59:33;0.80;;;0.40;;
36817;SDS011;22761;51.542;16.450;2023-03-14T14:04:57;2.70;;;0.60;;
36817;SDS011;22761;51.542;16.450;2023-03-14T14:07:25;1.70;;;0.70;;
36817;SDS011;22761;51.542;16.450;2023-03-14T14:09:53;2.60;;;0.70;;
36817;SDS011;22761;51.542;16.450;2023-03-14T14:12:23;1.70;;;0.70;;
36817;SDS011;22761;51.542;16.450;2023-03-14T14:15:30;2.30;;;0.70;;
36817;SDS011;22761;51.542;16.450;2023-03-14T14:17:51;2.10;;;0.90;;
36817;SDS011;22761;51.542;16.450;2023-03-14T14:20:35;1.60;;;0.80;;
36817;SDS011;22761;51.542;16.450;2023-03-14T14:23:06;1.30;;;0.80;;
36817;SDS011;22761;51.542;16.450;2023-03-14T14:25:37;2.10;;;0.70;;
36817;SDS011;22761;51.542;16.450;2023-03-14T14:28:17;2.50;;;0.80;;
36817;SDS011;22761;51.542;16.450;2023-03-14T14:33:54;3.20;;;1.10;;
36817;SDS011;22761;51.542;16.450;2023-03-14T14:36:39;3.10;;;1.10;;
36817;SDS011;22761;51.542;16.450;2023-03-14T14:41:40;2.60;;;1.10;;
36817;SDS011;22761;51.542;16.450;2023-03-14T14:44:12;2.00;;;0.80;;
36817;SDS011;22761;51.542;16.450;2023-03-14T14:46:42;3.00;;;1.70;;
36817;SDS011;22761;51.542;16.450;2023-03-14T14:49:12;4.10;;;1.30;;
36817;SDS011;22761;51.542;16.450;2023-03-14T14:51:42;2.60;;;0.90;;
36817;SDS011;22761;51.542;16.450;2023-03-14T14:54:32;2.40;;;1.10;;
36817;SDS011;22761;51.542;16.450;2023-03-14T14:57:18;2.00;;;0.90;;
36817;SDS011;22761;51.542;16.450;2023-03-14T14:59:48;3.30;;;1.10;;
36817;SDS011;22761;51.542;16.450;2023-03-14T15:07:28;1.90;;;0.80;;
36817;SDS011;22761;51.542;16.450;2023-03-14T15:09:57;3.80;;;0.90;;
36817;SDS011;22761;51.542;16.450;2023-03-14T15:12:25;2.90;;;1.00;;
36817;SDS011;22761;51.542;16.450;2023-03-14T15:14:53;2.30;;;0.90;;
36817;SDS011;22761;51.542;16.450;2023-03-14T15:17:25;2.60;;;0.80;;
36817;SDS011;22761;51.542;16.450;2023-03-14T15:19:53;2.10;;;0.70;;
36817;SDS011;22761;51.542;16.450;2023-03-14T15:22:23;1.30;;;0.60;;
36817;SDS011;22761;51.542;16.450;2023-03-14T15:24:51;1.90;;;0.70;;
36817;SDS011;22761;51.542;16.450;2023-03-14T15:27:19;0.70;;;0.60;;
36817;SDS011;22761;51.542;16.450;2023-03-14T15:29:47;1.60;;;0.80;;
36817;SDS011;22761;51.542;16.450;2023-03-14T15:32:16;1.20;;;0.70;;
36817;SDS011;22761;51.542;16.450;2023-03-14T15:34:45;2.70;;;0.80;;
36817;SDS011;22761;51.542;16.450;2023-03-14T15:37:15;2.20;;;0.80;;
36817;SDS011;22761;51.542;16.450;2023-03-14T15:39:44;1.30;;;0.90;;
36817;SDS011;22761;51.542;16.450;2023-03-14T15:42:12;3.40;;;0.90;;
36817;SDS011;22761;51.542;16.450;2023-03-14T15:44:40;2.50;;;0.70;;
36817;SDS011;22761;51.542;16.450;2023-03-14T15:47:09;2.20;;;0.70;;
36817;SDS011;22761;51.542;16.450;2023-03-14T15:49:38;1.60;;;0.90;;
36817;SDS011;22761;51.542;16.450;2023-03-14T15:52:07;2.90;;;0.90;;
36817;SDS011;22761;51.542;16.450;2023-03-14T15:54:35;2.00;;;1.00;;
36817;SDS011;22761;51.542;16.450;2023-03-14T15:57:03;2.00;;;1.00;;
36817;SDS011;22761;51.542;16.450;2023-03-14T15:59:34;4.40;;;0.90;;
36817;SDS011;22761;51.542;16.450;2023-03-14T16:02:03;4.80;;;1.00;;
36817;SDS011;22761;51.542;16.450;2023-03-14T16:04:31;1.60;;;0.90;;
36817;SDS011;22761;51.542;16.450;2023-03-14T16:06:59;2.90;;;1.50;;
36817;SDS011;22761;51.542;16.450;2023-03-14T16:09:27;2.50;;;1.20;;
36817;SDS011;22761;51.542;16.450;2023-03-14T16:11:56;2.90;;;1.00;;
36817;SDS011;22761;51.542;16.450;2023-03-14T16:14:24;2.60;;;1.10;;
36817;SDS011;22761;51.542;16.450;2023-03-14T16:16:53;2.00;;;0.80;;
36817;SDS011;22761;51.542;16.450;2023-03-14T16:19:23;2.80;;;1.00;;
36817;SDS011;22761;51.542;16.450;2023-03-14T16:21:53;2.30;;;1.10;;
36817;SDS011;22761;51.542;16.450;2023-03-14T16:24:22;3.90;;;1.40;;
36817;SDS011;22761;51.542;16.450;2023-03-14T16:26:50;2.30;;;1.00;;
36817;SDS011;22761;51.542;16.450;2023-03-14T16:29:18;2.20;;;1.00;;
36817;SDS011;22761;51.542;16.450;2023-03-14T16:31:46;2.20;;;0.80;;
36817;SDS011;22761;51.542;16.450;2023-03-14T16:34:15;2.80;;;0.90;;
36817;SDS011;22761;51.542;16.450;2023-03-14T16:36:43;1.60;;;0.90;;